createdAt,value
2018-11-25T00:16:41.611Z,16.60
2018-11-25T00:19:18.283Z,16.40
2018-11-25T00:21:49.372Z,16.40
2018-11-25T00:24:23.756Z,16.40
2018-11-25T00:27:02.476Z,16.40
2018-11-25T00:29:32.190Z,16.40
2018-11-25T00:35:37.664Z,16.40
2018-11-25T00:53:51.261Z,16.20
2018-11-25T00:57:10.713Z,16.30
2018-11-25T01:05:07.449Z,16.20
2018-11-25T01:08:48.776Z,16.10
2018-11-25T01:25:59.079Z,16.10
2018-11-25T01:28:52.412Z,16.10
2018-11-25T01:37:48.304Z,16.10
2018-11-25T01:40:36.267Z,16.10
2018-11-25T05:31:20.778Z,15.30
2018-11-25T05:33:50.701Z,15.40
2018-11-25T05:36:19.997Z,15.40
2018-11-25T05:38:49.280Z,15.40
2018-11-25T05:41:40.238Z,15.40
2018-11-25T05:44:10.357Z,15.40
2018-11-25T05:49:43.664Z,15.40
2018-11-25T05:52:13.068Z,15.30
2018-11-25T05:54:42.388Z,15.30
2018-11-25T05:57:23.521Z,15.30
2018-11-25T06:00:04.210Z,15.40
2018-11-25T06:02:33.463Z,15.30
2018-11-25T06:05:20.556Z,15.40
2018-11-25T06:07:49.889Z,15.40
2018-11-25T06:10:42.454Z,15.40
2018-11-25T06:13:10.481Z,15.40
2018-11-25T06:15:52.605Z,15.40
2018-11-25T06:18:21.897Z,15.40
2018-11-25T06:20:51.989Z,15.30
2018-11-25T06:29:27.505Z,15.40
2018-11-25T06:40:59.242Z,15.40
2018-11-25T06:43:28.598Z,15.40
2018-11-25T06:48:58.891Z,15.40
2018-11-25T06:51:28.182Z,15.40
2018-11-25T06:53:57.504Z,15.40
2018-11-25T06:56:27.473Z,15.40
2018-11-25T06:58:56.286Z,15.40
2018-11-25T07:01:25.633Z,15.40
2018-11-25T07:04:06.270Z,15.40
2018-11-25T07:06:35.545Z,15.40
2018-11-25T07:09:07.498Z,15.40
2018-11-25T07:11:36.828Z,15.40
2018-11-25T07:14:17.653Z,15.40
2018-11-25T07:16:48.698Z,15.40
2018-11-25T07:19:19.782Z,15.50
2018-11-25T07:21:52.775Z,15.50
2018-11-25T07:24:22.041Z,15.50
2018-11-25T07:27:02.682Z,15.40
2018-11-25T07:32:12.650Z,15.40
2018-11-25T07:35:01.891Z,15.40
2018-11-25T07:37:31.181Z,15.40
2018-11-25T07:46:21.863Z,15.60
2018-11-25T07:48:52.316Z,15.70
2018-11-25T08:45:10.412Z,17.30
2018-11-25T08:47:41.132Z,17.40
2018-11-25T08:50:16.863Z,17.50
2018-11-25T08:52:47.333Z,17.50
2018-11-25T08:55:17.887Z,17.60
2018-11-25T08:57:47.263Z,17.70
2018-11-25T09:00:21.409Z,17.70
2018-11-25T09:02:52.121Z,17.80
2018-11-25T09:05:21.529Z,17.80
2018-11-25T09:07:50.887Z,17.90
2018-11-25T09:10:21.249Z,17.90
2018-11-25T09:12:55.838Z,18.00
2018-11-25T09:15:25.219Z,18.00
2018-11-25T09:17:56.005Z,18.00
2018-11-25T09:20:35.166Z,18.10
2018-11-25T09:23:06.750Z,18.10
2018-11-25T09:25:36.139Z,18.20
2018-11-25T09:28:05.620Z,18.20
2018-11-25T09:30:35.197Z,18.30
2018-11-25T09:33:04.623Z,18.40
2018-11-25T09:35:35.374Z,18.40
2018-11-25T09:38:04.778Z,18.50
2018-11-25T09:40:34.170Z,18.50
2018-11-25T09:43:03.614Z,18.60
2018-11-25T09:45:32.960Z,18.60
2018-11-25T09:48:02.309Z,18.70
2018-11-25T09:50:31.552Z,18.70
2018-11-25T09:53:00.913Z,18.70
2018-11-25T09:55:30.310Z,18.70
2018-11-25T09:58:00.930Z,18.80
2018-11-25T10:00:32.667Z,18.80
2018-11-25T10:03:02.358Z,18.80
2018-11-25T10:05:31.818Z,18.90
2018-11-25T10:08:01.327Z,18.90
2018-11-25T10:10:30.807Z,18.90
2018-11-25T10:13:00.445Z,19.00
2018-11-25T10:15:30.446Z,19.00
2018-11-25T10:18:00.294Z,19.00
2018-11-25T10:20:30.793Z,19.00
2018-11-25T10:23:01.242Z,19.10
2018-11-25T10:25:30.786Z,19.10
2018-11-25T10:28:00.276Z,19.10
2018-11-25T10:30:31.877Z,19.20
2018-11-25T10:33:03.660Z,19.20
2018-11-25T10:35:33.944Z,19.20
2018-11-25T10:38:03.558Z,19.20
2018-11-25T10:40:33.071Z,19.10
2018-11-25T10:43:02.729Z,19.10
2018-11-25T10:45:34.261Z,19.00
2018-11-25T10:48:04.629Z,19.00
2018-11-25T10:50:34.442Z,19.00
2018-11-25T10:53:04.353Z,19.00
2018-11-25T10:55:34.127Z,18.90
2018-11-25T10:58:04.024Z,18.90
2018-11-25T11:00:40.182Z,18.90
2018-11-25T11:03:15.762Z,19.00
2018-11-25T11:05:50.500Z,19.10
2018-11-25T11:08:20.545Z,19.00
2018-11-25T11:10:50.010Z,19.00
2018-11-25T11:13:19.371Z,19.10
2018-11-25T11:15:48.656Z,19.10
2018-11-25T11:18:17.970Z,19.10
2018-11-25T11:20:47.305Z,19.10
2018-11-25T11:23:16.637Z,19.10
2018-11-25T11:25:45.951Z,19.10
2018-11-25T11:28:15.314Z,19.00
2018-11-25T11:30:44.993Z,18.90
2018-11-25T11:33:14.313Z,18.90
2018-11-25T11:35:43.562Z,18.80
2018-11-25T11:38:13.019Z,18.80
2018-11-25T11:40:42.529Z,18.70
2018-11-25T11:43:11.934Z,18.60
2018-11-25T11:45:41.375Z,18.60
2018-11-25T11:48:10.683Z,18.60
2018-11-25T11:50:40.025Z,18.60
2018-11-25T11:53:09.524Z,18.60
2018-11-25T11:55:39.034Z,18.70
2018-11-25T11:58:08.386Z,18.70
2018-11-25T12:00:37.750Z,18.70
2018-11-25T12:03:07.219Z,18.70
2018-11-25T12:05:36.615Z,18.70
2018-11-25T12:08:06.297Z,18.70
2018-11-25T12:10:35.664Z,18.70
2018-11-25T12:13:05.616Z,18.60
2018-11-25T12:15:34.897Z,18.50
2018-11-25T12:18:04.299Z,18.60
2018-11-25T12:20:33.639Z,18.70
2018-11-25T12:23:03.054Z,18.70
2018-11-25T12:25:32.461Z,18.70
2018-11-25T12:28:01.713Z,18.80
2018-11-25T12:30:31.018Z,18.70
2018-11-25T12:33:00.327Z,18.60
2018-11-25T12:35:29.599Z,18.60
2018-11-25T12:37:58.893Z,18.60
2018-11-25T12:40:28.199Z,18.60
2018-11-25T12:42:58.639Z,18.70
2018-11-25T12:45:27.961Z,18.80
2018-11-25T12:47:57.235Z,18.80
2018-11-25T12:50:27.321Z,18.90
2018-11-25T12:52:56.662Z,19.00
2018-11-25T12:55:27.961Z,19.00
2018-11-25T12:57:57.945Z,19.10
2018-11-25T13:00:36.533Z,19.00
2018-11-25T13:03:06.751Z,19.00
2018-11-25T13:05:36.245Z,19.00
2018-11-25T13:08:05.646Z,18.90
2018-11-25T13:10:35.042Z,18.90
2018-11-25T13:13:04.542Z,18.90
2018-11-25T13:15:33.913Z,18.90
2018-11-25T13:18:03.536Z,19.00
2018-11-25T13:20:32.910Z,19.00
2018-11-25T13:23:02.306Z,19.00
2018-11-25T13:25:31.762Z,19.00
2018-11-25T13:28:01.056Z,19.00
2018-11-25T13:30:31.885Z,19.00
2018-11-25T13:33:02.410Z,19.00
2018-11-25T13:35:33.359Z,18.90
2018-11-25T13:38:02.962Z,18.90
2018-11-25T13:40:32.342Z,19.00
2018-11-25T13:43:01.590Z,18.90
2018-11-25T13:45:30.884Z,18.90
2018-11-25T13:48:00.259Z,18.90
2018-11-25T13:50:29.600Z,19.00
2018-11-25T13:52:58.932Z,18.90
2018-11-25T13:55:29.106Z,18.90
2018-11-25T13:57:58.401Z,18.90
2018-11-25T14:00:30.744Z,18.90
2018-11-25T14:03:00.088Z,18.90
2018-11-25T14:05:29.357Z,18.90
2018-11-25T14:07:58.613Z,18.90
2018-11-25T14:10:31.605Z,19.00
2018-11-25T14:13:01.034Z,19.00
2018-11-25T14:15:30.325Z,19.00
2018-11-25T14:17:59.663Z,19.00
2018-11-25T14:20:28.985Z,19.10
2018-11-25T14:22:58.275Z,19.10
2018-11-25T14:25:28.198Z,19.10
2018-11-25T14:27:59.650Z,19.20
2018-11-25T14:30:30.265Z,19.20
2018-11-25T14:32:59.553Z,19.30
2018-11-25T14:35:28.956Z,19.30
2018-11-25T14:37:58.282Z,19.30
2018-11-25T14:40:27.597Z,19.40
2018-11-25T14:42:56.874Z,19.40
2018-11-25T14:45:26.158Z,19.40
2018-11-25T14:47:55.818Z,19.30
2018-11-25T14:50:26.039Z,19.40
2018-11-25T14:52:55.813Z,19.40
2018-11-25T14:55:32.758Z,19.40
2018-11-25T14:58:02.909Z,19.40
2018-11-25T15:00:32.513Z,19.40
2018-11-25T15:03:03.401Z,19.40
2018-11-25T15:05:40.486Z,19.40
2018-11-25T15:08:11.474Z,19.40
2018-11-25T15:10:41.209Z,19.40
2018-11-25T15:13:11.137Z,19.40
2018-11-25T15:15:42.182Z,19.40
2018-11-25T15:18:12.202Z,19.40
2018-11-25T15:20:41.940Z,19.40
2018-11-25T15:23:13.661Z,19.30
2018-11-25T15:25:47.750Z,19.40
2018-11-25T15:28:17.344Z,19.40
2018-11-25T15:30:46.874Z,19.40
2018-11-25T15:33:16.291Z,19.40
2018-11-25T15:35:45.816Z,19.30
2018-11-25T15:38:15.501Z,19.30
2018-11-25T15:40:45.619Z,19.30
2018-11-25T15:43:15.305Z,19.30
2018-11-25T15:45:44.910Z,19.30
2018-11-25T15:48:20.420Z,19.30
2018-11-25T15:50:50.120Z,19.30
2018-11-25T15:53:19.599Z,19.30
2018-11-25T15:55:50.902Z,19.20
2018-11-25T15:58:20.481Z,19.20
2018-11-25T16:00:50.228Z,19.20
2018-11-25T16:03:19.725Z,19.10
2018-11-25T16:05:55.496Z,19.10
2018-11-25T16:08:25.075Z,19.20
2018-11-25T16:10:57.263Z,19.10
2018-11-25T16:13:27.875Z,19.10
2018-11-25T16:16:00.273Z,19.10
2018-11-25T16:18:30.035Z,19.10
2018-11-25T16:21:00.583Z,19.10
2018-11-25T16:23:30.170Z,19.10
2018-11-25T16:26:03.291Z,19.00
2018-11-25T16:28:40.200Z,19.00
2018-11-25T16:31:10.278Z,19.00
2018-11-25T16:33:40.061Z,19.00
2018-11-25T16:36:09.607Z,19.00
2018-11-25T16:38:39.073Z,19.00
2018-11-25T16:41:08.429Z,18.90
2018-11-25T16:43:37.757Z,18.90
2018-11-25T16:46:07.124Z,18.90
2018-11-25T16:48:36.422Z,18.90
2018-11-25T16:51:05.783Z,18.90
2018-11-25T16:53:35.081Z,18.80
2018-11-25T16:56:04.521Z,18.80
2018-11-25T16:58:33.906Z,18.80
2018-11-25T17:01:09.827Z,18.80
2018-11-25T17:03:32.932Z,18.70
2018-11-25T17:06:02.502Z,18.70
2018-11-25T17:08:35.479Z,18.70
2018-11-25T17:11:05.033Z,18.70
2018-11-25T17:13:35.500Z,18.70
2018-11-25T17:16:05.029Z,18.70
2018-11-25T17:18:37.050Z,18.70
2018-11-25T17:21:09.428Z,18.70
2018-11-25T17:23:38.839Z,18.70
2018-11-25T17:26:08.105Z,18.70
2018-11-25T17:28:37.367Z,18.60
2018-11-25T17:31:08.015Z,18.60
2018-11-25T17:33:37.409Z,18.60
2018-11-25T17:36:06.851Z,18.60
2018-11-25T17:38:36.499Z,18.60
2018-11-25T17:41:06.261Z,18.60
2018-11-25T17:43:36.132Z,18.60
2018-11-25T17:46:05.787Z,18.60
2018-11-25T17:48:35.265Z,18.60
2018-11-25T17:51:04.792Z,18.60
2018-11-25T17:53:34.313Z,18.60
2018-11-25T17:56:04.407Z,18.60
2018-11-25T17:58:33.928Z,18.60
2018-11-25T18:01:08.267Z,18.60
2018-11-25T18:03:38.679Z,18.50
2018-11-25T18:06:10.171Z,18.50
2018-11-25T18:08:39.926Z,18.50
2018-11-25T18:11:09.361Z,18.50
2018-11-25T18:13:43.238Z,18.50
2018-11-25T18:16:13.085Z,18.50
2018-11-25T18:18:47.572Z,18.50
2018-11-25T18:21:19.923Z,18.50
2018-11-25T18:23:49.427Z,18.50
2018-11-25T18:26:20.289Z,18.50
2018-11-25T18:28:49.892Z,18.50
2018-11-25T18:31:19.323Z,18.50
2018-11-25T18:33:48.923Z,18.40
2018-11-25T18:36:18.352Z,18.40
2018-11-25T18:38:47.794Z,18.40
2018-11-25T18:41:17.138Z,18.40
2018-11-25T18:43:46.462Z,18.40
2018-11-25T18:46:15.755Z,18.40
2018-11-25T18:48:47.747Z,18.40
2018-11-25T18:51:17.066Z,18.40
2018-11-25T18:53:48.417Z,18.40
2018-11-25T18:56:16.767Z,18.40
2018-11-25T18:58:46.129Z,18.50
2018-11-25T19:16:53.025Z,18.50
2018-11-25T19:19:22.491Z,18.40
2018-11-25T19:21:51.899Z,18.40
2018-11-25T19:24:21.184Z,18.40
2018-11-25T19:26:50.481Z,18.40
2018-11-25T19:29:19.916Z,18.40
2018-11-25T19:31:49.367Z,18.50
2018-11-25T19:34:18.775Z,18.50
2018-11-25T19:36:48.054Z,18.50
2018-11-25T19:39:17.629Z,18.40
2018-11-25T19:41:48.054Z,18.40
2018-11-25T19:44:17.535Z,18.40
2018-11-25T19:46:46.912Z,18.40
2018-11-25T19:49:21.642Z,18.50
2018-11-25T19:51:51.164Z,18.50
2018-11-25T19:54:20.573Z,18.50
2018-11-25T19:56:50.188Z,18.50
2018-11-25T19:59:19.668Z,18.50
2018-11-25T20:01:49.171Z,18.60
2018-11-25T20:04:18.543Z,18.60
2018-11-25T20:06:48.101Z,18.60
2018-11-25T20:09:17.643Z,18.60
2018-11-25T20:11:46.990Z,18.60
2018-11-25T20:14:16.289Z,18.60
2018-11-25T20:16:50.720Z,18.60
2018-11-25T20:19:20.050Z,18.70
2018-11-25T20:21:54.474Z,18.70
2018-11-25T20:24:24.324Z,18.60
2018-11-25T20:26:58.802Z,18.60
2018-11-25T20:29:28.135Z,18.60
2018-11-25T20:32:02.351Z,18.70
2018-11-25T20:34:31.658Z,18.60
2018-11-25T20:37:01.066Z,18.60
2018-11-25T20:39:30.858Z,18.70
2018-11-25T20:42:00.453Z,18.70
2018-11-25T20:44:29.783Z,18.70
2018-11-25T20:47:06.946Z,18.70
2018-11-25T20:49:36.728Z,18.70
2018-11-25T20:52:11.238Z,18.70
2018-11-25T20:54:40.613Z,18.70
2018-11-25T20:57:09.980Z,18.60
2018-11-25T20:59:39.281Z,18.60
2018-11-25T21:02:08.707Z,18.70
2018-11-25T21:04:37.990Z,18.60
2018-11-25T21:07:07.314Z,18.60
2018-11-25T21:09:36.666Z,18.60
2018-11-25T21:12:05.949Z,18.60
2018-11-25T21:14:35.178Z,18.70
2018-11-25T21:17:04.563Z,18.60
2018-11-25T21:19:33.806Z,18.60
2018-11-25T21:22:03.074Z,18.70
2018-11-25T21:24:32.437Z,18.60
2018-11-25T21:27:01.912Z,18.60
2018-11-25T21:29:31.262Z,18.70
2018-11-25T21:32:00.556Z,18.70
2018-11-25T21:34:29.924Z,18.70
2018-11-25T21:37:01.157Z,18.70
2018-11-25T21:39:30.428Z,18.70
2018-11-25T21:41:59.720Z,18.70
2018-11-25T21:44:28.965Z,18.70
2018-11-25T21:46:58.378Z,18.70
2018-11-25T21:49:27.807Z,18.80
2018-11-25T21:51:57.172Z,18.80
2018-11-25T21:54:26.489Z,18.80
2018-11-25T21:56:55.870Z,18.90
2018-11-25T21:59:25.222Z,18.90
2018-11-25T22:01:54.646Z,18.90
2018-11-25T22:04:23.933Z,18.90
2018-11-25T22:06:53.982Z,18.90
2018-11-25T22:09:23.249Z,18.90
2018-11-25T22:11:52.633Z,18.90
2018-11-25T22:14:21.937Z,18.90
2018-11-25T22:16:52.141Z,18.90
2018-11-25T22:19:21.491Z,19.00
2018-11-25T22:21:51.002Z,19.00
2018-11-25T22:24:20.425Z,19.00
2018-11-25T22:26:50.059Z,19.00
2018-11-25T22:29:19.398Z,19.00
2018-11-25T22:31:48.676Z,19.00
2018-11-25T22:34:18.025Z,19.00
2018-11-25T22:36:47.297Z,19.00
2018-11-25T22:39:16.641Z,18.90
2018-11-25T22:41:46.033Z,18.90
2018-11-25T22:44:15.356Z,18.90
2018-11-25T22:46:44.618Z,18.90
2018-11-25T22:49:14.083Z,18.90
2018-11-25T22:51:43.473Z,18.90
2018-11-25T22:54:12.818Z,18.90
2018-11-25T22:56:42.144Z,18.90
2018-11-25T22:59:11.436Z,18.80
2018-11-25T23:01:40.769Z,18.80
2018-11-25T23:05:24.227Z,18.80
2018-11-25T23:07:54.380Z,18.80
2018-11-25T23:10:23.774Z,18.80
2018-11-25T23:12:53.342Z,18.80
2018-11-25T23:15:23.370Z,18.70
2018-11-25T23:17:53.025Z,18.70
2018-11-25T23:20:22.534Z,18.70
2018-11-25T23:22:51.967Z,18.70
2018-11-25T23:25:21.483Z,18.70
2018-11-25T23:27:50.924Z,18.70
2018-11-25T23:30:20.264Z,18.70
2018-11-25T23:32:49.566Z,18.60
2018-11-25T23:35:21.614Z,18.60
2018-11-25T23:37:50.958Z,18.50
2018-11-25T23:40:20.281Z,18.50
2018-11-25T23:42:49.685Z,18.50
2018-11-25T23:45:18.985Z,18.50
2018-11-25T23:47:48.371Z,18.50
2018-11-25T23:50:17.706Z,18.50
2018-11-25T23:52:48.782Z,18.40
2018-11-25T23:55:18.104Z,18.40
2018-11-25T23:57:47.458Z,18.30
